createdAt,value
2023-03-03T00:00:29.429Z,101054.94
2023-03-03T00:03:21.470Z,101064.55
2023-03-03T00:05:52.631Z,101061.77
2023-03-03T00:08:23.330Z,101059.08
2023-03-03T00:10:53.284Z,101059.77
2023-03-03T00:13:25.093Z,101056.60
2023-03-03T00:15:56.010Z,101060.34
2023-03-03T00:18:36.349Z,101060.44
2023-03-03T00:21:21.022Z,101057.33
2023-03-03T00:23:50.879Z,101058.27
2023-03-03T00:26:31.437Z,101057.07
2023-03-03T00:29:02.292Z,101054.43
2023-03-03T00:31:35.801Z,101054.26
2023-03-03T00:34:20.665Z,101058.52
2023-03-03T00:36:55.040Z,101055.80
2023-03-03T00:39:34.133Z,101050.84
2023-03-03T00:42:13.996Z,101053.05
2023-03-03T00:44:50.155Z,101046.89
2023-03-03T00:47:33.146Z,101043.30
2023-03-03T00:50:11.586Z,101044.84
2023-03-03T00:53:08.347Z,101040.20
2023-03-03T00:55:39.941Z,101033.77
2023-03-03T00:58:10.926Z,101035.94
2023-03-03T01:00:42.596Z,101039.80
2023-03-03T01:03:18.140Z,101042.83
2023-03-03T01:05:52.144Z,101045.53
2023-03-03T01:08:24.380Z,101044.48
2023-03-03T01:10:56.910Z,101047.32
2023-03-03T01:13:33.412Z,101036.28
2023-03-03T01:16:04.251Z,101027.52
2023-03-03T01:18:34.412Z,101022.55
2023-03-03T01:21:04.139Z,101021.63
2023-03-03T01:23:36.526Z,101016.19
2023-03-03T01:26:06.218Z,101019.48
2023-03-03T01:28:37.010Z,101016.95
2023-03-03T01:31:14.862Z,101017.96
2023-03-03T01:33:44.418Z,101023.19
2023-03-03T01:36:14.495Z,101015.33
2023-03-03T01:38:45.749Z,101015.79
2023-03-03T01:41:22.029Z,101009.40
2023-03-03T01:43:52.336Z,101008.24
2023-03-03T01:46:33.534Z,101003.47
2023-03-03T01:49:12.136Z,101005.40
2023-03-03T01:52:18.277Z,101006.60
2023-03-03T01:54:56.708Z,100998.92
2023-03-03T01:57:33.671Z,100995.88
2023-03-03T02:00:09.679Z,100997.05
2023-03-03T02:02:49.544Z,100993.77
2023-03-03T02:05:22.154Z,100995.38
2023-03-03T02:07:57.485Z,100996.02
2023-03-03T02:10:27.294Z,100996.98
2023-03-03T02:12:58.879Z,100996.09
2023-03-03T02:15:32.536Z,100986.10
2023-03-03T02:18:06.285Z,100985.91
2023-03-03T02:21:00.189Z,100991.01
2023-03-03T02:24:02.976Z,101000.95
2023-03-03T02:26:36.426Z,100998.58
2023-03-03T02:29:09.745Z,100999.48
2023-03-03T02:31:41.151Z,101003.45
2023-03-03T02:34:12.086Z,101009.16
2023-03-03T02:36:44.017Z,101015.30
2023-03-03T02:39:23.999Z,101020.27
2023-03-03T02:42:17.690Z,101018.83
2023-03-03T02:44:52.558Z,101011.66
2023-03-03T02:47:24.850Z,101003.09
2023-03-03T02:50:01.540Z,101013.70
2023-03-03T02:52:33.180Z,101024.41
2023-03-03T02:55:09.801Z,101020.80
2023-03-03T02:57:40.179Z,101018.50
2023-03-03T03:00:12.221Z,101021.19
2023-03-03T03:02:43.239Z,101020.50
2023-03-03T03:05:18.751Z,101017.58
2023-03-03T03:07:55.844Z,101012.64
2023-03-03T03:10:27.594Z,101022.02
2023-03-03T03:13:00.923Z,101017.19
2023-03-03T03:15:33.916Z,101016.20
2023-03-03T03:18:06.091Z,101016.29
2023-03-03T03:20:40.655Z,101018.22
2023-03-03T03:23:17.878Z,101023.57
2023-03-03T03:25:49.692Z,101031.27
2023-03-03T03:28:27.036Z,101021.29
2023-03-03T03:30:57.645Z,101012.23
2023-03-03T03:33:32.441Z,101016.01
2023-03-03T03:36:07.295Z,101007.42
2023-03-03T03:38:46.516Z,101003.89
2023-03-03T03:41:16.867Z,100998.14
2023-03-03T03:43:48.712Z,100997.05
2023-03-03T03:46:24.450Z,100999.31
2023-03-03T03:48:54.125Z,100991.66
2023-03-03T03:51:25.500Z,100983.75
2023-03-03T03:53:57.523Z,100985.10
2023-03-03T03:56:30.592Z,100988.44
2023-03-03T03:59:02.676Z,100986.33
2023-03-03T04:01:32.722Z,100987.34
2023-03-03T04:04:06.146Z,100986.85
2023-03-03T04:06:40.122Z,100992.73
2023-03-03T04:09:12.491Z,100985.88
2023-03-03T04:11:42.459Z,100980.12
2023-03-03T04:14:15.359Z,100983.33
2023-03-03T04:16:47.850Z,100981.45
2023-03-03T04:19:19.742Z,100980.61
2023-03-03T04:21:53.287Z,100975.68
2023-03-03T04:24:22.872Z,100975.94
2023-03-03T04:26:53.182Z,100971.25
2023-03-03T04:29:22.224Z,100963.45
2023-03-03T04:31:51.167Z,100961.92
2023-03-03T04:34:21.580Z,100961.07
2023-03-03T04:36:50.390Z,100966.56
2023-03-03T04:39:20.298Z,100965.59
2023-03-03T04:41:49.240Z,100960.48
2023-03-03T04:44:18.981Z,100964.67
2023-03-03T04:46:48.098Z,100963.56
2023-03-03T04:49:17.688Z,100965.45
2023-03-03T04:51:49.024Z,100966.13
2023-03-03T04:54:21.558Z,100970.45
2023-03-03T04:56:50.474Z,100968.59
2023-03-03T04:59:20.894Z,100968.70
2023-03-03T05:01:51.356Z,100963.60
2023-03-03T05:04:20.595Z,100962.16
2023-03-03T05:06:51.374Z,100967.81
2023-03-03T05:09:21.148Z,100970.98
2023-03-03T05:11:50.626Z,100967.50
2023-03-03T05:14:19.422Z,100963.25
2023-03-03T05:16:50.467Z,100968.73
2023-03-03T05:19:19.433Z,100962.54
2023-03-03T05:21:48.810Z,100956.92
2023-03-03T05:24:18.062Z,100956.61
2023-03-03T05:26:47.635Z,100957.87
2023-03-03T05:29:17.285Z,100965.88
2023-03-03T05:31:46.149Z,100962.08
2023-03-03T05:34:15.236Z,100965.65
2023-03-03T05:36:44.682Z,100961.11
2023-03-03T05:39:14.238Z,100968.64
2023-03-03T05:41:43.134Z,100976.27
2023-03-03T05:44:12.814Z,100983.33
2023-03-03T05:46:42.893Z,100979.92
2023-03-03T05:49:13.901Z,100975.80
2023-03-03T05:51:43.699Z,100978.02
2023-03-03T05:54:13.794Z,100995.55
2023-03-03T05:56:44.202Z,100999.45
2023-03-03T05:59:14.528Z,101004.15
2023-03-03T06:01:46.055Z,101012.92
2023-03-03T06:04:16.525Z,101020.78
2023-03-03T06:06:45.538Z,101029.14
2023-03-03T06:09:14.291Z,101030.64
2023-03-03T06:11:43.804Z,101028.54
2023-03-03T06:14:15.610Z,101020.58
2023-03-03T06:16:45.356Z,101009.95
2023-03-03T06:19:14.989Z,100997.85
2023-03-03T06:21:43.873Z,100986.17
2023-03-03T06:24:12.688Z,100992.27
2023-03-03T06:26:43.722Z,100995.44
2023-03-03T06:29:14.644Z,100998.67
2023-03-03T06:31:45.204Z,101006.02
2023-03-03T06:34:14.211Z,101007.67
2023-03-03T06:36:43.915Z,101008.98
2023-03-03T06:39:12.994Z,101009.78
2023-03-03T06:41:42.061Z,101008.03
2023-03-03T06:44:12.695Z,101014.23
2023-03-03T06:46:42.037Z,101019.91
2023-03-03T06:49:10.914Z,101018.42
2023-03-03T06:51:41.683Z,101022.91
2023-03-03T06:54:15.230Z,101018.63
2023-03-03T06:56:46.005Z,101011.09
2023-03-03T06:59:21.452Z,101007.77
2023-03-03T07:01:51.258Z,101005.93
2023-03-03T07:04:26.440Z,101003.11
2023-03-03T07:06:58.452Z,101008.52
2023-03-03T07:09:30.289Z,101014.69
2023-03-03T07:12:07.474Z,101024.55
2023-03-03T07:14:42.791Z,101023.46
2023-03-03T07:17:21.104Z,101023.63
2023-03-03T07:19:52.370Z,101026.92
2023-03-03T07:22:25.044Z,101020.00
2023-03-03T07:25:02.830Z,101026.32
2023-03-03T07:27:47.085Z,101025.23
2023-03-03T07:30:30.213Z,101033.38
2023-03-03T07:33:00.519Z,101041.30
2023-03-03T07:35:43.487Z,101036.50
2023-03-03T07:38:32.344Z,101037.23
2023-03-03T07:41:04.369Z,101033.48
2023-03-03T07:43:37.537Z,101029.02
2023-03-03T07:46:37.358Z,101032.09
2023-03-03T07:49:24.083Z,101035.19
2023-03-03T07:51:58.552Z,101038.47
2023-03-03T07:54:40.807Z,101046.39
2023-03-03T07:57:13.434Z,101049.21
2023-03-03T07:59:49.051Z,101046.34
2023-03-03T08:02:40.917Z,101048.33
2023-03-03T08:05:39.644Z,101045.45
2023-03-03T08:08:31.478Z,101044.55
2023-03-03T08:11:06.174Z,101046.17
2023-03-03T08:13:41.496Z,101045.59
2023-03-03T08:16:12.233Z,101047.45
2023-03-03T08:18:55.121Z,101048.16
2023-03-03T08:21:29.815Z,101053.96
2023-03-03T08:23:59.813Z,101064.80
2023-03-03T08:26:32.138Z,101069.22
2023-03-03T08:29:01.724Z,101063.92
2023-03-03T08:31:40.816Z,101065.77
2023-03-03T08:34:14.532Z,101063.64
2023-03-03T08:36:43.581Z,101062.36
2023-03-03T08:39:15.799Z,101067.73
2023-03-03T08:41:48.544Z,101065.40
2023-03-03T08:44:20.730Z,101063.02
2023-03-03T08:46:50.357Z,101058.34
2023-03-03T08:49:20.222Z,101062.23
2023-03-03T08:51:49.641Z,101061.80
2023-03-03T08:54:18.527Z,101060.93
2023-03-03T08:56:47.316Z,101056.95
2023-03-03T08:59:16.464Z,101054.90
2023-03-03T09:01:47.665Z,101053.48
2023-03-03T09:04:16.569Z,101054.23
2023-03-03T09:06:45.595Z,101056.73
2023-03-03T09:09:17.456Z,101054.23
2023-03-03T09:11:47.845Z,101047.73
2023-03-03T09:14:21.110Z,101046.34
2023-03-03T09:16:56.109Z,101042.50
2023-03-03T09:19:36.182Z,101045.02
2023-03-03T09:22:24.456Z,101047.75
2023-03-03T09:24:56.833Z,101058.36
2023-03-03T09:27:31.676Z,101057.09
2023-03-03T09:30:36.883Z,101053.84
2023-03-03T09:33:41.887Z,101049.60
2023-03-03T09:36:38.111Z,101054.50
2023-03-03T09:39:20.999Z,101048.30
2023-03-03T09:42:13.446Z,101053.09
2023-03-03T09:44:50.640Z,101058.64
2023-03-03T09:47:31.029Z,101053.66
2023-03-03T09:50:27.833Z,101048.38
2023-03-03T09:53:25.460Z,101051.29
2023-03-03T09:56:09.000Z,101058.90
2023-03-03T09:58:46.946Z,101064.13
2023-03-03T10:01:46.606Z,101066.89
2023-03-03T10:04:48.100Z,101059.31
2023-03-03T10:07:27.826Z,101054.61
2023-03-03T10:10:12.583Z,101056.98
2023-03-03T10:13:14.133Z,101050.86
2023-03-03T10:15:59.628Z,101054.80
2023-03-03T10:18:53.331Z,101065.48
2023-03-03T10:21:52.247Z,101069.80
2023-03-03T10:24:35.997Z,101062.33
2023-03-03T10:27:24.938Z,101064.52
2023-03-03T10:30:39.944Z,101065.21
2023-03-03T10:33:33.783Z,101061.95
2023-03-03T10:36:16.526Z,101056.78
2023-03-03T10:38:46.818Z,101055.42
2023-03-03T10:41:26.975Z,101053.52
2023-03-03T10:44:09.515Z,101061.35
2023-03-03T10:47:30.110Z,101066.01
2023-03-03T10:50:32.702Z,101062.69
2023-03-03T10:53:30.289Z,101060.77
2023-03-03T10:56:17.504Z,101056.87
2023-03-03T10:59:12.314Z,101050.57
2023-03-03T11:02:01.179Z,101054.22
2023-03-03T11:05:05.860Z,101050.17
2023-03-03T11:07:49.587Z,101045.59
2023-03-03T11:11:00.671Z,101040.27
2023-03-03T11:13:57.761Z,101034.99
2023-03-03T11:16:39.427Z,101025.95
2023-03-03T11:19:53.126Z,101019.19
2023-03-03T11:22:48.805Z,101014.36
2023-03-03T11:25:21.441Z,101010.70
2023-03-03T11:28:27.511Z,101009.02
2023-03-03T11:31:31.825Z,101000.10
2023-03-03T11:34:24.823Z,100991.30
2023-03-03T11:37:18.880Z,100993.02
2023-03-03T11:40:58.917Z,100992.30
2023-03-03T11:43:49.759Z,100990.63
2023-03-03T11:46:44.493Z,100994.05
2023-03-03T11:49:37.089Z,100990.05
2023-03-03T11:52:36.670Z,100989.60
2023-03-03T11:55:54.551Z,100992.20
2023-03-03T11:59:19.038Z,100988.04
2023-03-03T12:02:01.772Z,100986.36
2023-03-03T12:05:39.989Z,100984.75
2023-03-03T12:09:50.087Z,100982.65
2023-03-03T12:13:30.484Z,100979.73
2023-03-03T12:16:58.247Z,100975.86
2023-03-03T13:10:52.591Z,100963.77
2023-03-03T13:22:06.216Z,100958.92
2023-03-03T13:25:34.450Z,100960.41
2023-03-03T13:29:14.669Z,100957.77
2023-03-03T13:32:43.255Z,100945.34
2023-03-03T13:36:53.051Z,100946.04
2023-03-03T13:40:27.035Z,100948.11
2023-03-03T13:44:00.862Z,100953.40
2023-03-03T13:47:07.331Z,100950.58
2023-03-03T13:51:09.422Z,100948.42
2023-03-03T13:54:40.455Z,100945.86
2023-03-03T13:57:22.773Z,100945.77
2023-03-03T14:00:40.543Z,100943.65
2023-03-03T14:03:47.562Z,100938.11
2023-03-03T14:06:57.621Z,100928.89
2023-03-03T14:10:42.463Z,100928.30
2023-03-03T14:14:10.147Z,100917.81
2023-03-03T14:17:13.765Z,100919.02
2023-03-03T14:20:32.051Z,100919.27
2023-03-03T14:23:55.701Z,100910.84
2023-03-03T14:26:29.582Z,100907.73
2023-03-03T14:29:29.196Z,100904.80
2023-03-03T14:32:39.468Z,100903.41
2023-03-03T14:35:22.348Z,100906.91
2023-03-03T14:38:26.338Z,100904.10
2023-03-03T14:42:01.007Z,100901.58
2023-03-03T14:45:14.590Z,100900.67
2023-03-03T14:47:57.585Z,100904.65
2023-03-03T14:50:41.697Z,100895.77
2023-03-03T14:53:40.579Z,100898.09
2023-03-03T14:56:29.522Z,100888.11
2023-03-03T14:59:26.646Z,100886.11
2023-03-03T15:02:19.273Z,100888.35
2023-03-03T15:04:51.904Z,100892.77
2023-03-03T15:07:39.023Z,100894.09
2023-03-03T15:10:11.265Z,100885.17
2023-03-03T15:12:44.396Z,100874.90
2023-03-03T15:15:23.118Z,100879.49
2023-03-03T15:18:13.009Z,100878.88
2023-03-03T15:21:11.725Z,100876.64
2023-03-03T15:24:00.290Z,100876.67
2023-03-03T15:26:51.614Z,100876.70
2023-03-03T15:29:29.410Z,100871.73
2023-03-03T15:32:23.107Z,100875.38
2023-03-03T15:35:03.732Z,100866.60
2023-03-03T15:37:53.135Z,100868.42
2023-03-03T15:40:29.780Z,100862.70
2023-03-03T15:43:31.209Z,100859.74
2023-03-03T15:46:32.712Z,100860.46
2023-03-03T15:49:44.005Z,100850.50
2023-03-03T15:52:24.161Z,100858.48
2023-03-03T15:55:18.545Z,100862.85
2023-03-03T15:58:18.958Z,100863.67
2023-03-03T16:01:28.786Z,100863.91
2023-03-03T16:04:25.890Z,100854.89
2023-03-03T16:07:21.845Z,100852.48
2023-03-03T16:10:12.669Z,100849.42
2023-03-03T16:13:22.319Z,100853.37
2023-03-03T16:16:10.600Z,100853.23
2023-03-03T16:19:18.424Z,100850.68
2023-03-03T16:22:37.061Z,100851.42
2023-03-03T16:25:34.993Z,100853.30
2023-03-03T16:28:28.000Z,100860.36
2023-03-03T16:31:06.980Z,100865.95
2023-03-03T16:34:01.062Z,100862.09
2023-03-03T16:37:06.742Z,100862.55
2023-03-03T16:40:09.469Z,100866.39
2023-03-03T16:42:43.667Z,100867.02
2023-03-03T16:45:25.896Z,100861.97
2023-03-03T16:48:27.456Z,100862.81
2023-03-03T16:51:09.948Z,100857.38
2023-03-03T16:54:09.303Z,100851.36
2023-03-03T16:56:47.999Z,100853.15
2023-03-03T16:59:34.377Z,100857.52
2023-03-03T17:02:51.075Z,100854.20
2023-03-03T17:05:53.159Z,100852.79
2023-03-03T17:08:34.079Z,100851.08
2023-03-03T17:11:20.704Z,100853.67
2023-03-03T17:14:04.781Z,100855.16
2023-03-03T17:16:58.737Z,100856.80
2023-03-03T17:19:49.780Z,100859.61
2023-03-03T17:23:00.447Z,100862.83
2023-03-03T17:25:40.060Z,100863.95
2023-03-03T17:28:34.479Z,100869.39
2023-03-03T17:31:22.540Z,100863.14
2023-03-03T17:34:05.563Z,100862.14
2023-03-03T17:36:56.493Z,100860.74
2023-03-03T17:40:01.079Z,100864.25
2023-03-03T17:42:49.719Z,100863.55
2023-03-03T17:45:21.375Z,100857.63
2023-03-03T17:48:14.167Z,100855.61
2023-03-03T17:50:53.031Z,100860.81
2023-03-03T17:54:01.016Z,100857.16
2023-03-03T17:56:56.222Z,100856.11
2023-03-03T17:59:52.052Z,100850.42
2023-03-03T18:02:55.916Z,100850.09
2023-03-03T18:05:36.436Z,100854.40
2023-03-03T18:09:14.171Z,100854.29
2023-03-03T18:12:07.501Z,100855.82
2023-03-03T18:14:42.436Z,100857.09
2023-03-03T18:17:40.118Z,100852.84
2023-03-03T18:20:57.109Z,100852.14
2023-03-03T18:23:44.466Z,100854.19
2023-03-03T18:26:33.760Z,100846.66
2023-03-03T18:29:24.476Z,100843.54
2023-03-03T18:32:23.605Z,100840.99
2023-03-03T18:35:34.405Z,100840.25
2023-03-03T18:38:38.516Z,100835.78
2023-03-03T18:41:34.135Z,100835.98
2023-03-03T18:44:31.128Z,100841.41
2023-03-03T18:47:02.687Z,100840.12
2023-03-03T18:50:02.962Z,100835.78
2023-03-03T18:53:23.821Z,100832.13
2023-03-03T18:56:00.650Z,100827.52
2023-03-03T18:58:34.813Z,100829.40
2023-03-03T19:01:12.495Z,100829.71
2023-03-03T19:04:13.219Z,100831.19
2023-03-03T19:07:03.266Z,100823.32
2023-03-03T19:09:52.812Z,100819.16
2023-03-03T19:12:53.931Z,100821.05
2023-03-03T19:15:40.207Z,100823.05
2023-03-03T19:18:44.099Z,100826.50
2023-03-03T19:21:43.181Z,100820.67
2023-03-03T19:24:50.334Z,100820.48
2023-03-03T19:27:43.816Z,100818.21
2023-03-03T19:30:24.177Z,100816.95
2023-03-03T19:33:34.349Z,100813.74
2023-03-03T19:36:31.801Z,100813.46
2023-03-03T19:39:30.756Z,100810.88
2023-03-03T19:42:32.424Z,100815.39
2023-03-03T19:45:13.215Z,100816.91
2023-03-03T19:47:53.577Z,100818.84
2023-03-03T19:50:47.280Z,100819.98
2023-03-03T19:53:36.734Z,100817.02
2023-03-03T19:56:20.622Z,100815.77
2023-03-03T19:59:19.949Z,100813.98
2023-03-03T20:02:02.954Z,100806.46
2023-03-03T20:04:57.255Z,100806.70
2023-03-03T20:08:16.052Z,100804.10
2023-03-03T20:10:54.795Z,100801.52
2023-03-03T20:14:09.376Z,100799.46
2023-03-03T20:16:42.315Z,100800.52
2023-03-03T20:20:07.474Z,100793.41
2023-03-03T20:23:05.352Z,100792.92
2023-03-03T20:26:02.554Z,100790.71
2023-03-03T20:28:46.551Z,100783.98
2023-03-03T20:31:34.586Z,100781.39
2023-03-03T20:34:36.912Z,100770.73
2023-03-03T20:37:32.752Z,100767.10
2023-03-03T20:40:41.723Z,100765.90
2023-03-03T20:43:30.610Z,100760.58
2023-03-03T20:46:23.835Z,100761.80
2023-03-03T20:49:15.084Z,100754.67
2023-03-03T20:52:13.176Z,100747.98
2023-03-03T20:55:02.135Z,100745.73
2023-03-03T20:57:55.809Z,100738.91
2023-03-03T21:00:43.843Z,100735.32
2023-03-03T21:03:34.823Z,100732.20
2023-03-03T21:06:16.195Z,100732.14
2023-03-03T21:08:59.826Z,100726.39
2023-03-03T21:11:33.722Z,100718.65
2023-03-03T21:14:23.084Z,100715.67
2023-03-03T21:17:28.431Z,100718.06
2023-03-03T21:20:23.604Z,100716.52
2023-03-03T21:22:56.044Z,100708.38
2023-03-03T21:25:43.509Z,100708.02
2023-03-03T21:28:20.698Z,100703.69
2023-03-03T21:31:37.717Z,100696.21
2023-03-03T21:34:20.892Z,100691.67
2023-03-03T21:37:07.362Z,100684.31
2023-03-03T21:39:39.619Z,100681.39
2023-03-03T21:42:44.645Z,100681.07
2023-03-03T21:45:22.392Z,100678.79
2023-03-03T21:47:57.712Z,100676.89
2023-03-03T21:50:41.495Z,100671.17
2023-03-03T21:53:13.328Z,100667.47
2023-03-03T21:55:49.701Z,100658.95
2023-03-03T21:58:23.941Z,100658.09
2023-03-03T22:01:00.247Z,100648.96
2023-03-03T22:03:33.530Z,100649.27
2023-03-03T22:06:13.899Z,100640.58
2023-03-03T22:08:48.709Z,100636.85
2023-03-03T22:11:29.689Z,100628.34
2023-03-03T22:13:59.360Z,100622.58
2023-03-03T22:16:42.726Z,100615.56
2023-03-03T22:19:14.429Z,100610.04
2023-03-03T22:21:49.554Z,100601.25
2023-03-03T22:24:23.351Z,100596.88
2023-03-03T22:26:57.643Z,100583.25
2023-03-03T22:29:32.201Z,100578.98
2023-03-03T22:32:06.850Z,100573.61
2023-03-03T22:34:40.379Z,100570.23
2023-03-03T22:37:13.452Z,100569.20
2023-03-03T22:39:46.090Z,100565.17
2023-03-03T22:42:20.447Z,100560.98
2023-03-03T22:45:04.384Z,100551.54
2023-03-03T22:47:40.262Z,100552.08
2023-03-03T22:50:12.971Z,100550.50
2023-03-03T22:52:43.320Z,100539.89
2023-03-03T22:55:19.571Z,100540.83
2023-03-03T22:58:10.120Z,100535.55
2023-03-03T23:00:43.413Z,100529.63
2023-03-03T23:03:15.196Z,100521.11
2023-03-03T23:05:49.040Z,100519.16
2023-03-03T23:08:22.168Z,100519.48
2023-03-03T23:11:12.269Z,100520.80
2023-03-03T23:13:43.253Z,100523.46
2023-03-03T23:16:39.083Z,100527.05
2023-03-03T23:19:21.896Z,100526.38
2023-03-03T23:21:55.404Z,100531.48
2023-03-03T23:24:30.496Z,100532.34
2023-03-03T23:27:01.398Z,100531.92
2023-03-03T23:29:53.551Z,100527.42
2023-03-03T23:32:26.961Z,100521.47
2023-03-03T23:35:07.676Z,100525.27
2023-03-03T23:37:41.315Z,100526.71
2023-03-03T23:40:16.825Z,100524.15
2023-03-03T23:42:50.756Z,100521.59
2023-03-03T23:45:30.206Z,100522.40
2023-03-03T23:48:04.759Z,100517.86
2023-03-03T23:50:38.483Z,100512.54
2023-03-03T23:53:11.060Z,100510.70
2023-03-03T23:56:12.359Z,100507.66
2023-03-03T23:58:43.182Z,100504.47
